Extreme weather reports worldwide

Rain

Station
 
Location
 
Name
 
Wind
Knots
Gust
Knots
Vis
SM
Temp/Dew
C
Baro
inHg
METAR
 
CSM KCSM Clinton, US Clinton Sherman Airport 25 37 26/20 29.80 KCSM 181453Z 17025G37KT 10SM -RA CLR 27/20 A2980 RMK AO2 PK WND 18037/1452 RAB32 SLP062 P0000 60000 T02670200 50010
EMP KEMP Emporia, US Emporia Municipal Airport 19 34 27/21 29.80 KEMP 181453Z AUTO 17019G34KT 10SM -RA BKN028 BKN032 28/21 A2980 RMK AO2 PK WND 18037/1438 SLP078 P0000 60000 T02780211 51011
INL KINL International Falls, US Falls International Airport 17 31 17/16 29.48 KINL 181454Z AUTO 14017G31KT 10SM -RA SCT110 18/17 A2948 RMK AO2 PK WND 14031/1445 SLP983 P0009 60042 T01780167 58031 $
KUS BGKK Kulusuk, GL Kulusuk Airport 18 30 5/2 29.76 BGKK 181450Z 08018G30KT 9999 -RA FEW012 SCT021 BKN035 05/02 Q1008
UIN KUIN Quincy, US Quincy Regional Baldwin Field 17 25 28/21 29.95 KUIN 181454Z AUTO 18017G25KT 10SM -RA FEW027 29/21 A2995 RMK AO2 RAB24 SLP134 P0000 60000 T02890211 50009

Station
 
Location
 
Name
 
Wind
Knots
Gust
Knots
Vis
SM
Temp/Dew
C
Baro
inHg
METAR
 
MAO SBEG Manaus, BR Eduardo Gomes International Airport 13 24 25/23 29.88 SBEG 181500Z 15013G24KT 9999 3000S -TSRA SCT010 FEW025CB BKN100 25/23 Q1012
TTO KBTN Britton, US Britton Municipal Airport 17 23 2 18/18 29.51 KBTN 181455Z AUTO 11017G23KT 2SM -RA BR FEW003 SCT046 OVC055 18/18 A2951 RMK AO2 P0009 VIS 1V4
PTH PAPH Port Heiden, US Port Heiden Airport 15 23 9/6 29.86 PAPH 181456Z AUTO 13015G23KT 10SM -RA FEW042 09/06 A2986 RMK AO2 RAB29 SLP111 P0000 60000 T00940061 56010 $
UST KSGJ St Augustine, US Northeast Florida Regional Airport 18 22 26/22 30.09 KSGJ 181456Z 09018G22KT 10SM -RA BKN028 BKN040 OVC050 27/23 A3009 RMK AO2 PK WND 08026/1407 RAB41 SLP188 P0000 60000 T02670228 53003
YYW CYYW Armstrong, CA Armstrong Airport 17 22 1.75 12/10 29.73 CYYW 181501Z AUTO 15017G22KT 140V270 1 3/4SM +TSRA BR SCT011 BKN044 BKN055 OVC083 12/10 A2973 RMK LTNG DIST ALQDS PRESRR PCPN 2.8MM PAST HR TS/LTNG TEMPO UNAVBL SLP069
YRT CYRT Rankin Inlet, CA Rankin Inlet Airport 16 22 5 2/1 29.46 CYRT 181500Z 04016G22KT 5SM -SHRA BKN008 OVC035 02/01 A2946 RMK SC6SC2 CIG RAG CVCTV CLD EMBD SLP982
SBN KSBN South Bend, US South Bend Regional Airport 15 22 25/20 30.09 KSBN 181454Z 21015G22KT 10SM -RA FEW090 FEW120 26/21 A3009 RMK AO2 RAB1357E34B53 SLP183 P0000 60000 T02560206 53011
YCY CYCY Clyde River, CA Clyde River Airport 16 21 15 4/4 29.63 CYCY 181500Z 32016G21KT 15SM -DZRA FEW006 SCT016 OVC065 04/04 A2963 RMK SF1SF3SC5 SF TR LGT PCPN INTMT SLP036
KPO1 13 21 5 9/9 29.85 KPO1 181455Z AUTO 01013G21KT 5SM -RA BR CLR 09/09 A2985 RMK AO2 P0009
MWL KMWL Mineral Wells, US Mineral Wells Regional Airport 13 21 26/21 29.87 KMWL 181500Z AUTO 16013G21KT 10SM -RA FEW017 BKN022 OVC044 26/21 A2987 RMK AO2 P0000 T02610211
KCFE Buffalo, US Buffalo Municipal Airport 12 21 2.5 25/24 29.63 KCFE 181455Z AUTO 18012G21KT 2 1/2SM VCTS RA BR BKN025 BKN030 OVC060 25/24 A2963 RMK AO2 LTG DSNT S AND SW P0003
LEBR 11 21 30/10 29.76 LEBR 181500Z AUTO 15011G21KT 130V220 9999 -RA FEW039/// 30/10 Q1008 RETSRA
MSY KMSY New Orleans, US Louis Armstrong New Orleans International Airport 11 20 7 27/25 29.92 KMSY 181453Z 07011G20KT 7SM -RA FEW013 BKN020 BKN029 BKN160 OVC250 28/26 A2992 RMK AO2 RAB39 SLP134 P0005 60005 T02780256 53009
TPF KTPF Tampa, US Peter O Knight Airport 14 19 7 30/20 30.00 KTPF 181455Z AUTO 09014G19KT 7SM RA BKN037 30/20 A3000 RMK AO2
EGX PAII Egegik, US Egegik Airport 14 19 7/6 29.97 PAII 181456Z AUTO 12014G19KT 10SM -RA OVC065 08/06 A2997 RMK AO2 RAB29 SLP147 P0000 60000 T00780061 56007
GRR KGRR Grand Rapids, US Gerald R. Ford International Airport 12 19 26/20 30.07 KGRR 181453Z 20012G19KT 10SM -RA FEW024 FEW075 BKN110 OVC150 27/20 A3007 RMK AO2 RAB50 SLP177 P0000 60000 T02670200 53014
PAJC Chignik, US Chignik Airport 8 18 4 8/6 29.88 PAJC 181457Z AUTO 08008G18KT 4SM -RA BR OVC010 08/07 A2988 RMK AO2 CIG 007V012 SLP119 P0006 60015 T00830067 56010 $
KRYM Camp Ripley, US Ray S Miller Army Air Field 11 17 6 19/18 29.60 KRYM 181355Z AUTO 02011G17KT 6SM -RA BR FEW012 FEW016 SCT020 BKN027 OVC032 19/18 A2960 RMK AO2 LTG DSNT NW RAB29 CIG 019V027 SLP024 P0022 T01930183 $
YVT CYVT Buffalo Narrows, CA Buffalo Narrows Airport 11 16 9 6/3 29.92 CYVT 181500Z AUTO 34011G16KT 9SM -RA BKN018 BKN043 OVC050 06/03 A2992 RMK SLP153
KGYL Glencoe, US Glencoe Municipal Airport 10 16 7 24/22 29.63 KGYL 181455Z AUTO 16010G16KT 7SM -VCTSRA SCT014 BKN028 OVC046 24/22 A2963 RMK AO2 LTG DSNT ALQDS P0009 60009 T02400222
YXL CYXL Sioux Lookout, CA Sioux Lookout Airport 7 16 15 16/16 29.49 CYXL 181500Z 17007G16KT 120V200 15SM -SHRA BKN005 OVC010 16/16 A2949 RMK SF6SC2 CVCTV CLD EMBD PRESFR SLP996 DENSITY ALT 2200FT
YPL CYPL Pickle Lake, CA Pickle Lake Airport 10 15 5 12/11 29.61 CYPL 181506Z AUTO 05010G15KT 020V090 5SM +RA BR FEW007 BKN014 OVC022 12/11 A2961 RMK PCPN 0.8MM PAST HR SLP038 DENSITY ALT 1600FT
ADK PADK Adak Island, US Adak Airport 8 15 4 5/5 29.78 PADK 181456Z AUTO 36008G15KT 4SM -RA BR OVC003 06/06 A2978 RMK AO2 RAB41 SLP084 P0000 60000 T00560056 56003 $
YRL CYRL Red Lake, CA Red Lake Airport 8 15 6 11/10 29.62 CYRL 181500Z 03008G15KT 340V040 6SM -RA BR OVC005 11/10 A2962 RMK FG1SC7 CIG RAG SLP041
KHCO Hallock, US Hallock Municipal Airport 11 14 2.5 12/12 29.64 KHCO 181455Z AUTO 01011G14KT 2 1/2SM -RA OVC010 12/12 A2964 RMK AO2
DTL KDTL Detroit Lakes, US Detroit Lakes Airport - Wething Field 6 12 18/17 29.55 KDTL 181455Z AUTO 07006G12KT 10SM -RA FEW031 SCT060 BKN080 18/17 A2955 RMK AO2 LTG DSNT NE AND SW AND W P0001
GOH BGGH Nuuk, GL Godthaab / Nuuk Airport 30 5.59 3/2 29.73 BGGH 181450Z 18030KT 9000 -RASN BKN008 OVC018 03/02 Q1007 RERA
TNC PATC Tin City, US Tin City Long Range Radar Station Airport 25 2 0/0 29.87 PATC 181455Z AUTO 03025KT 2SM -SHRA BR OVC002 00/00 A2987 RMK AO2 PK WND 03029/1356 SHRAB1405E1433B1449 SLP116 P0000 60000 T10051005 58004
ENGC 19 11/10 29.82 ENGC 181450Z 32019KT 9999 -RADZ BKN004 11/10 Q1010 W10/S3
URA UARR Uralsk, KZ Uralsk Airport 17 28/17 29.91 UARR 181500Z 25009MPS 9999 -TSRA BKN046CB 28/17 Q1013 NOSIG RMK QFE756/1008
KXWA 15 1.75 8/7 29.80 KXWA 181451Z AUTO 03015KT 1 3/4SM -RA BR BKN005 BKN009 OVC020 09/08 A2980 RMK AO2 SLP106 P0002 60004 T00890078 53016
K1LM 14 3/2 29.94 K1LM 181455Z AUTO 33014KT 10SM -RA BKN010 BKN014 OVC019 03/02 A2994 RMK AO2 CIG 009V013 SLP155 P0003 60012 T00340024 52021 $
FNA GFLL Freetown, SL Lungi International Airport 14 4.35 27/24 29.88 GFLL 181400Z 09014KT 7000 RA BKN090 FEW027CB 27/24 Q1012 RMK- CB- NE/SW
SVO UUEE Moscow, RU Sheremetyevo International Airport 14 20/18 29.76 UUEE 181500Z 27007MPS 9999 -SHRA FEW008 BKN024CB 20/18 Q1008 R24L/290245 R24C/290245 NOSIG
BJI KBJI Bemidji, US Bemidji Regional Airport 13 17/17 29.54 KBJI 181455Z AUTO 14013KT 10SM -RA SCT018 SCT047 OVC100 17/17 A2954 RMK AO2 LTG DSNT E P0003 60012 T01730173
YVC CYVC La Ronge, CA La Ronge Airport 13 15 7/2 29.88 CYVC 181500Z 32013KT 280V340 15SM -SHRA BKN025 07/02 A2988 RMK SC7 CVCTV CLD EMBD SLP135
CRD SAVC Comodoro Rivadavia, AR General E. Mosconi Airport 12 3/1 29.62 SAVC 181500Z 24012KT 9999 -RA SCT040 03/01 Q1003
TVF KTVF Thief River Falls, US Thief River Falls Regional Airport 12 14/13 29.63 KTVF 181456Z AUTO 28012KT 10SM -RA OVC005 14/14 A2963 RMK AO2 CIG 004V008 SLP032 P0000 60004 T01440139 53027
CSX ZGHA Changsha, CN Changsha Huanghua International Airport 12 0.99 26/25 29.62 ZGHA 181500Z 25006MPS 1600 +TSRA BR SCT004 FEW027CB BKN027 26/25 Q1003 BECMG TL1600 3500 -SHRA
DMB UADD Taraz, KZ Taraz Airport 12 24/14 29.88 UADD 181500Z 16006MPS 9999 -SHRA VCTS BKN050CB OVC100 24/14 Q1012 NOSIG RMK QFE702/0937
HUY EGNJ Grimsby, GB Humberside Airport 12 15/13 30.00 EGNJ 181450Z 04012KT 9999 -SHRA SCT011 BKN030 15/13 Q1016
K1CM 12 3/2 29.96 K1CM 181455Z AUTO 28012KT 10SM -RA SCT014 OVC032 04/03 A2996 RMK AO2 SLP165 P0003 60018 T00380026 52021 $
VKO UUWW Moscow, RU Vnukovo International Airport 12 20/19 29.79 UUWW 181500Z 28006MPS 9999 -SHRA FEW009 BKN020CB 20/19 Q1009 R24/290050 NOSIG
OLF KOLF Wolf Point, US L M Clayton Airport 12 5 8/7 29.86 KOLF 181453Z AUTO 02012KT 5SM -RA BR FEW019 BKN034 OVC041 09/07 A2986 RMK AO2 SLP119 P0006 60022 T00890072 53017
KVC PAVC King Cove, US King Cove Airport 12 / 29.78 PAVC 181456Z AUTO 06012KT 10SM -RA OVC013 A2978 RMK AO2 SLPNO P0000 60000 56010 FZRANO $